sensor_id;sensor_type;location;lat;lon;timestamp;temperature;humidity
11855;DHT22;5987;53.140;8.904;2023-02-28T00:01:58;3.60;99.90
11855;DHT22;5987;53.140;8.904;2023-02-28T00:05:03;3.70;99.90
11855;DHT22;5987;53.140;8.904;2023-02-28T00:08:08;3.80;99.90
11855;DHT22;5987;53.140;8.904;2023-02-28T00:11:14;3.90;99.90
11855;DHT22;5987;53.140;8.904;2023-02-28T00:14:18;3.80;99.90
11855;DHT22;5987;53.140;8.904;2023-02-28T00:17:22;3.80;99.90
11855;DHT22;5987;53.140;8.904;2023-02-28T00:20:27;3.80;99.90
11855;DHT22;5987;53.140;8.904;2023-02-28T00:23:31;3.80;99.90
11855;DHT22;5987;53.140;8.904;2023-02-28T00:26:35;3.80;99.90
11855;DHT22;5987;53.140;8.904;2023-02-28T00:29:39;3.90;99.90
11855;DHT22;5987;53.140;8.904;2023-02-28T00:32:43;4.00;99.90
11855;DHT22;5987;53.140;8.904;2023-02-28T00:35:49;3.90;99.90
11855;DHT22;5987;53.140;8.904;2023-02-28T00:38:53;3.80;99.90
11855;DHT22;5987;53.140;8.904;2023-02-28T00:41:57;3.80;99.90
11855;DHT22;5987;53.140;8.904;2023-02-28T00:45:01;3.70;99.90
11855;DHT22;5987;53.140;8.904;2023-02-28T00:48:06;3.70;99.90
11855;DHT22;5987;53.140;8.904;2023-02-28T00:51:11;3.90;99.90
11855;DHT22;5987;53.140;8.904;2023-02-28T00:54:15;3.90;99.90
11855;DHT22;5987;53.140;8.904;2023-02-28T00:57:19;3.80;99.90
11855;DHT22;5987;53.140;8.904;2023-02-28T01:00:23;3.80;99.90
11855;DHT22;5987;53.140;8.904;2023-02-28T01:03:27;3.70;99.90
11855;DHT22;5987;53.140;8.904;2023-02-28T01:06:32;3.70;99.90
11855;DHT22;5987;53.140;8.904;2023-02-28T01:09:36;3.80;99.90
11855;DHT22;5987;53.140;8.904;2023-02-28T01:12:39;3.80;99.90
11855;DHT22;5987;53.140;8.904;2023-02-28T01:15:46;3.80;99.90
11855;DHT22;5987;53.140;8.904;2023-02-28T01:18:54;3.80;99.90
11855;DHT22;5987;53.140;8.904;2023-02-28T01:22:00;3.80;99.90
11855;DHT22;5987;53.140;8.904;2023-02-28T01:25:05;3.70;99.90
11855;DHT22;5987;53.140;8.904;2023-02-28T01:28:10;3.60;99.90
11855;DHT22;5987;53.140;8.904;2023-02-28T01:31:14;3.70;99.90
11855;DHT22;5987;53.140;8.904;2023-02-28T01:34:21;3.70;99.90
11855;DHT22;5987;53.140;8.904;2023-02-28T01:37:26;3.70;99.90
11855;DHT22;5987;53.140;8.904;2023-02-28T01:40:30;3.70;99.90
11855;DHT22;5987;53.140;8.904;2023-02-28T01:44:03;3.60;99.90
11855;DHT22;5987;53.140;8.904;2023-02-28T01:47:07;3.60;99.90
11855;DHT22;5987;53.140;8.904;2023-02-28T01:50:15;3.60;99.90
11855;DHT22;5987;53.140;8.904;2023-02-28T01:53:26;3.70;99.90
11855;DHT22;5987;53.140;8.904;2023-02-28T01:56:36;3.80;99.90
11855;DHT22;5987;53.140;8.904;2023-02-28T01:59:43;3.70;99.90
11855;DHT22;5987;53.140;8.904;2023-02-28T02:02:57;3.60;99.90
11855;DHT22;5987;53.140;8.904;2023-02-28T02:06:04;3.50;99.90
11855;DHT22;5987;53.140;8.904;2023-02-28T02:09:09;3.70;99.90
11855;DHT22;5987;53.140;8.904;2023-02-28T02:12:21;3.70;99.90
11855;DHT22;5987;53.140;8.904;2023-02-28T02:15:41;3.60;99.90
11855;DHT22;5987;53.140;8.904;2023-02-28T02:18:53;3.60;99.90
11855;DHT22;5987;53.140;8.904;2023-02-28T02:22:18;3.60;99.90
11855;DHT22;5987;53.140;8.904;2023-02-28T02:25:39;3.50;99.90
11855;DHT22;5987;53.140;8.904;2023-02-28T02:29:17;3.50;99.90
11855;DHT22;5987;53.140;8.904;2023-02-28T02:32:49;3.30;99.90
11855;DHT22;5987;53.140;8.904;2023-02-28T02:36:12;3.40;99.90
11855;DHT22;5987;53.140;8.904;2023-02-28T02:39:27;3.30;99.90
11855;DHT22;5987;53.140;8.904;2023-02-28T02:42:41;3.50;99.90
11855;DHT22;5987;53.140;8.904;2023-02-28T02:45:54;3.50;99.90
11855;DHT22;5987;53.140;8.904;2023-02-28T02:49:05;3.30;99.90
11855;DHT22;5987;53.140;8.904;2023-02-28T02:52:16;3.20;99.90
11855;DHT22;5987;53.140;8.904;2023-02-28T02:55:24;3.10;99.90
11855;DHT22;5987;53.140;8.904;2023-02-28T02:58:33;3.10;99.90
11855;DHT22;5987;53.140;8.904;2023-02-28T03:01:45;3.20;99.90
11855;DHT22;5987;53.140;8.904;2023-02-28T03:04:52;3.20;99.90
11855;DHT22;5987;53.140;8.904;2023-02-28T03:08:05;3.20;99.90
11855;DHT22;5987;53.140;8.904;2023-02-28T03:11:13;3.30;99.90
11855;DHT22;5987;53.140;8.904;2023-02-28T03:14:46;3.20;99.90
11855;DHT22;5987;53.140;8.904;2023-02-28T03:18:05;3.00;99.90
11855;DHT22;5987;53.140;8.904;2023-02-28T03:21:17;3.00;99.90
11855;DHT22;5987;53.140;8.904;2023-02-28T03:24:32;3.00;99.90
11855;DHT22;5987;53.140;8.904;2023-02-28T03:27:53;3.10;99.90
11855;DHT22;5987;53.140;8.904;2023-02-28T03:31:08;2.90;99.90
11855;DHT22;5987;53.140;8.904;2023-02-28T03:34:24;3.00;99.90
11855;DHT22;5987;53.140;8.904;2023-02-28T03:37:33;3.00;99.90
11855;DHT22;5987;53.140;8.904;2023-02-28T03:40:46;2.90;99.90
11855;DHT22;5987;53.140;8.904;2023-02-28T03:43:55;2.90;99.90
11855;DHT22;5987;53.140;8.904;2023-02-28T03:47:04;2.70;99.90
11855;DHT22;5987;53.140;8.904;2023-02-28T03:50:16;2.50;99.90
11855;DHT22;5987;53.140;8.904;2023-02-28T03:53:27;2.40;99.90
11855;DHT22;5987;53.140;8.904;2023-02-28T03:56:39;2.50;99.90
11855;DHT22;5987;53.140;8.904;2023-02-28T03:59:49;2.20;99.90
11855;DHT22;5987;53.140;8.904;2023-02-28T04:02:57;2.20;99.90
11855;DHT22;5987;53.140;8.904;2023-02-28T04:06:02;2.30;99.90
11855;DHT22;5987;53.140;8.904;2023-02-28T04:09:08;2.30;99.90
11855;DHT22;5987;53.140;8.904;2023-02-28T04:12:16;2.00;99.90
11855;DHT22;5987;53.140;8.904;2023-02-28T04:15:20;2.00;99.90
11855;DHT22;5987;53.140;8.904;2023-02-28T04:18:24;2.10;99.90
11855;DHT22;5987;53.140;8.904;2023-02-28T04:21:28;2.20;99.90
11855;DHT22;5987;53.140;8.904;2023-02-28T04:24:33;2.30;99.90
11855;DHT22;5987;53.140;8.904;2023-02-28T04:27:38;2.30;99.90
11855;DHT22;5987;53.140;8.904;2023-02-28T04:30:41;2.30;99.90
11855;DHT22;5987;53.140;8.904;2023-02-28T04:33:45;2.20;99.90
11855;DHT22;5987;53.140;8.904;2023-02-28T04:36:48;2.20;99.90
11855;DHT22;5987;53.140;8.904;2023-02-28T04:40:12;2.10;99.90
11855;DHT22;5987;53.140;8.904;2023-02-28T04:43:18;2.00;99.90
11855;DHT22;5987;53.140;8.904;2023-02-28T04:46:22;2.00;99.90
11855;DHT22;5987;53.140;8.904;2023-02-28T04:49:26;2.00;99.90
11855;DHT22;5987;53.140;8.904;2023-02-28T04:52:30;2.00;99.90
11855;DHT22;5987;53.140;8.904;2023-02-28T04:55:33;1.90;99.90
11855;DHT22;5987;53.140;8.904;2023-02-28T04:58:39;1.80;99.90
11855;DHT22;5987;53.140;8.904;2023-02-28T05:01:46;1.70;99.90
11855;DHT22;5987;53.140;8.904;2023-02-28T05:04:50;1.70;99.90
11855;DHT22;5987;53.140;8.904;2023-02-28T05:07:54;1.90;99.90
11855;DHT22;5987;53.140;8.904;2023-02-28T05:10:58;1.90;99.90
11855;DHT22;5987;53.140;8.904;2023-02-28T05:14:06;1.70;99.90
11855;DHT22;5987;53.140;8.904;2023-02-28T05:17:12;1.60;99.90
11855;DHT22;5987;53.140;8.904;2023-02-28T05:20:16;1.60;99.90
11855;DHT22;5987;53.140;8.904;2023-02-28T05:23:22;1.50;99.90
11855;DHT22;5987;53.140;8.904;2023-02-28T05:26:27;1.50;99.90
11855;DHT22;5987;53.140;8.904;2023-02-28T05:29:32;1.40;99.90
11855;DHT22;5987;53.140;8.904;2023-02-28T05:32:36;1.20;99.90
11855;DHT22;5987;53.140;8.904;2023-02-28T05:35:40;1.10;99.90
11855;DHT22;5987;53.140;8.904;2023-02-28T05:38:46;1.30;99.90
11855;DHT22;5987;53.140;8.904;2023-02-28T05:41:51;1.40;99.90
11855;DHT22;5987;53.140;8.904;2023-02-28T05:44:56;1.20;99.90
11855;DHT22;5987;53.140;8.904;2023-02-28T05:47:59;1.30;99.90
11855;DHT22;5987;53.140;8.904;2023-02-28T05:51:04;1.30;99.90
11855;DHT22;5987;53.140;8.904;2023-02-28T05:54:08;1.10;99.90
11855;DHT22;5987;53.140;8.904;2023-02-28T05:57:15;0.70;99.90
11855;DHT22;5987;53.140;8.904;2023-02-28T06:00:27;0.50;99.90
11855;DHT22;5987;53.140;8.904;2023-02-28T06:03:31;0.40;99.90
11855;DHT22;5987;53.140;8.904;2023-02-28T06:06:35;0.30;99.90
11855;DHT22;5987;53.140;8.904;2023-02-28T06:09:39;0.30;99.90
11855;DHT22;5987;53.140;8.904;2023-02-28T06:12:43;0.20;99.90
11855;DHT22;5987;53.140;8.904;2023-02-28T06:15:48;0.40;99.90
11855;DHT22;5987;53.140;8.904;2023-02-28T06:18:52;0.40;99.90
11855;DHT22;5987;53.140;8.904;2023-02-28T06:21:57;0.50;99.90
11855;DHT22;5987;53.140;8.904;2023-02-28T06:25:01;0.40;99.90
11855;DHT22;5987;53.140;8.904;2023-02-28T06:28:05;0.20;99.90
11855;DHT22;5987;53.140;8.904;2023-02-28T06:31:13;0.20;99.90
11855;DHT22;5987;53.140;8.904;2023-02-28T06:34:17;0.20;99.90
11855;DHT22;5987;53.140;8.904;2023-02-28T06:37:21;0.20;99.90
11855;DHT22;5987;53.140;8.904;2023-02-28T06:40:28;0.20;99.90
11855;DHT22;5987;53.140;8.904;2023-02-28T06:43:35;0.20;99.90
11855;DHT22;5987;53.140;8.904;2023-02-28T06:46:43;0.10;99.90
11855;DHT22;5987;53.140;8.904;2023-02-28T06:49:47;0.10;99.90
11855;DHT22;5987;53.140;8.904;2023-02-28T06:52:51;0.10;99.90
11855;DHT22;5987;53.140;8.904;2023-02-28T06:55:57;0.20;99.90
11855;DHT22;5987;53.140;8.904;2023-02-28T06:59:01;0.20;99.90
11855;DHT22;5987;53.140;8.904;2023-02-28T07:02:08;0.30;99.90
11855;DHT22;5987;53.140;8.904;2023-02-28T07:05:12;0.30;99.90
11855;DHT22;5987;53.140;8.904;2023-02-28T07:08:15;0.40;99.90
11855;DHT22;5987;53.140;8.904;2023-02-28T07:11:20;0.40;99.90
11855;DHT22;5987;53.140;8.904;2023-02-28T07:14:27;0.50;99.90
11855;DHT22;5987;53.140;8.904;2023-02-28T07:17:32;0.50;99.90
11855;DHT22;5987;53.140;8.904;2023-02-28T07:20:36;0.50;99.90
11855;DHT22;5987;53.140;8.904;2023-02-28T07:23:40;0.60;99.90
11855;DHT22;5987;53.140;8.904;2023-02-28T07:26:44;0.60;99.90
11855;DHT22;5987;53.140;8.904;2023-02-28T07:29:47;0.60;99.90
11855;DHT22;5987;53.140;8.904;2023-02-28T07:32:52;0.60;99.90
11855;DHT22;5987;53.140;8.904;2023-02-28T07:36:00;0.60;99.90
11855;DHT22;5987;53.140;8.904;2023-02-28T07:39:05;0.70;99.90
11855;DHT22;5987;53.140;8.904;2023-02-28T07:42:11;0.80;99.90
11855;DHT22;5987;53.140;8.904;2023-02-28T07:45:21;0.90;99.90
11855;DHT22;5987;53.140;8.904;2023-02-28T07:48:26;1.10;99.90
11855;DHT22;5987;53.140;8.904;2023-02-28T07:51:30;1.20;99.90
11855;DHT22;5987;53.140;8.904;2023-02-28T07:54:34;1.30;99.90
11855;DHT22;5987;53.140;8.904;2023-02-28T07:57:38;1.40;99.90
11855;DHT22;5987;53.140;8.904;2023-02-28T08:00:43;1.70;99.90
11855;DHT22;5987;53.140;8.904;2023-02-28T08:03:48;2.00;99.90
11855;DHT22;5987;53.140;8.904;2023-02-28T08:06:52;2.20;99.90
11855;DHT22;5987;53.140;8.904;2023-02-28T08:09:56;2.40;99.90
11855;DHT22;5987;53.140;8.904;2023-02-28T08:12:59;2.60;99.90
11855;DHT22;5987;53.140;8.904;2023-02-28T08:16:03;2.80;99.90
11855;DHT22;5987;53.140;8.904;2023-02-28T08:19:09;2.80;99.90
11855;DHT22;5987;53.140;8.904;2023-02-28T08:22:12;2.90;99.90
11855;DHT22;5987;53.140;8.904;2023-02-28T08:25:17;3.10;99.90
11855;DHT22;5987;53.140;8.904;2023-02-28T08:28:20;3.20;99.90
11855;DHT22;5987;53.140;8.904;2023-02-28T08:31:27;3.40;99.90
11855;DHT22;5987;53.140;8.904;2023-02-28T08:34:33;3.50;99.90
11855;DHT22;5987;53.140;8.904;2023-02-28T08:37:37;3.70;99.90
11855;DHT22;5987;53.140;8.904;2023-02-28T08:40:40;3.80;99.90
11855;DHT22;5987;53.140;8.904;2023-02-28T08:43:44;3.80;99.90
11855;DHT22;5987;53.140;8.904;2023-02-28T08:46:48;3.70;99.90
11855;DHT22;5987;53.140;8.904;2023-02-28T08:49:53;3.80;99.90
11855;DHT22;5987;53.140;8.904;2023-02-28T08:52:57;4.00;99.90
11855;DHT22;5987;53.140;8.904;2023-02-28T08:56:04;4.30;99.90
11855;DHT22;5987;53.140;8.904;2023-02-28T08:59:09;4.40;99.90
11855;DHT22;5987;53.140;8.904;2023-02-28T09:02:13;4.50;99.90
11855;DHT22;5987;53.140;8.904;2023-02-28T09:05:18;4.70;99.90
11855;DHT22;5987;53.140;8.904;2023-02-28T09:08:23;4.90;99.90
11855;DHT22;5987;53.140;8.904;2023-02-28T09:11:28;5.00;99.90
11855;DHT22;5987;53.140;8.904;2023-02-28T09:14:31;5.00;99.90
11855;DHT22;5987;53.140;8.904;2023-02-28T09:17:35;5.20;99.90
11855;DHT22;5987;53.140;8.904;2023-02-28T09:20:41;5.40;99.90
11855;DHT22;5987;53.140;8.904;2023-02-28T09:23:47;5.50;99.90
11855;DHT22;5987;53.140;8.904;2023-02-28T09:26:52;5.50;99.90
11855;DHT22;5987;53.140;8.904;2023-02-28T09:30:07;5.40;99.90
11855;DHT22;5987;53.140;8.904;2023-02-28T09:33:12;5.40;99.90
11855;DHT22;5987;53.140;8.904;2023-02-28T09:36:18;5.50;99.90
11855;DHT22;5987;53.140;8.904;2023-02-28T09:39:24;5.50;99.90
11855;DHT22;5987;53.140;8.904;2023-02-28T09:42:32;5.60;99.90
11855;DHT22;5987;53.140;8.904;2023-02-28T09:45:39;5.50;99.90
11855;DHT22;5987;53.140;8.904;2023-02-28T09:48:47;5.70;99.90
11855;DHT22;5987;53.140;8.904;2023-02-28T09:51:57;5.80;99.90
11855;DHT22;5987;53.140;8.904;2023-02-28T09:55:19;5.80;99.90
11855;DHT22;5987;53.140;8.904;2023-02-28T09:58:30;5.90;99.90
11855;DHT22;5987;53.140;8.904;2023-02-28T10:01:45;5.80;99.90
11855;DHT22;5987;53.140;8.904;2023-02-28T10:04:59;5.80;99.90
11855;DHT22;5987;53.140;8.904;2023-02-28T10:08:13;6.00;99.90
11855;DHT22;5987;53.140;8.904;2023-02-28T10:11:19;6.00;99.90
11855;DHT22;5987;53.140;8.904;2023-02-28T10:14:26;6.00;99.90
11855;DHT22;5987;53.140;8.904;2023-02-28T10:17:38;6.10;99.90
11855;DHT22;5987;53.140;8.904;2023-02-28T10:21:03;6.20;99.90
11855;DHT22;5987;53.140;8.904;2023-02-28T10:24:19;6.30;99.90
11855;DHT22;5987;53.140;8.904;2023-02-28T10:27:29;6.20;99.90
11855;DHT22;5987;53.140;8.904;2023-02-28T10:30:35;6.30;99.90
11855;DHT22;5987;53.140;8.904;2023-02-28T10:33:42;6.50;99.90
11855;DHT22;5987;53.140;8.904;2023-02-28T10:36:46;6.50;99.20
11855;DHT22;5987;53.140;8.904;2023-02-28T10:39:53;6.20;99.70
11855;DHT22;5987;53.140;8.904;2023-02-28T10:42:59;6.40;99.90
11855;DHT22;5987;53.140;8.904;2023-02-28T10:46:12;6.40;99.30
11855;DHT22;5987;53.140;8.904;2023-02-28T10:49:28;6.50;99.90
11855;DHT22;5987;53.140;8.904;2023-02-28T10:52:35;6.60;99.30
11855;DHT22;5987;53.140;8.904;2023-02-28T10:55:42;6.70;98.80
11855;DHT22;5987;53.140;8.904;2023-02-28T10:58:52;6.80;97.80
11855;DHT22;5987;53.140;8.904;2023-02-28T11:01:57;6.60;97.80
11855;DHT22;5987;53.140;8.904;2023-02-28T11:05:01;6.50;98.70
11855;DHT22;5987;53.140;8.904;2023-02-28T11:08:10;6.50;98.40
11855;DHT22;5987;53.140;8.904;2023-02-28T11:11:19;6.40;99.10
11855;DHT22;5987;53.140;8.904;2023-02-28T11:14:27;6.50;99.00
11855;DHT22;5987;53.140;8.904;2023-02-28T11:17:33;6.40;99.30
11855;DHT22;5987;53.140;8.904;2023-02-28T11:20:38;6.40;99.90
11855;DHT22;5987;53.140;8.904;2023-02-28T11:23:43;6.60;99.90
11855;DHT22;5987;53.140;8.904;2023-02-28T11:26:49;6.60;99.80
11855;DHT22;5987;53.140;8.904;2023-02-28T11:29:53;6.70;99.20
11855;DHT22;5987;53.140;8.904;2023-02-28T11:32:57;6.80;99.30
11855;DHT22;5987;53.140;8.904;2023-02-28T11:36:03;6.90;98.00
11855;DHT22;5987;53.140;8.904;2023-02-28T11:39:13;6.90;98.40
11855;DHT22;5987;53.140;8.904;2023-02-28T11:42:43;6.90;98.50
11855;DHT22;5987;53.140;8.904;2023-02-28T11:46:10;7.00;98.60
11855;DHT22;5987;53.140;8.904;2023-02-28T11:49:32;6.80;98.60
11855;DHT22;5987;53.140;8.904;2023-02-28T11:52:45;6.90;98.90
11855;DHT22;5987;53.140;8.904;2023-02-28T11:56:00;6.90;98.50
11855;DHT22;5987;53.140;8.904;2023-02-28T11:59:35;7.00;97.70
11855;DHT22;5987;53.140;8.904;2023-02-28T12:03:01;6.90;96.60
11855;DHT22;5987;53.140;8.904;2023-02-28T12:06:22;6.80;97.30
11855;DHT22;5987;53.140;8.904;2023-02-28T12:09:51;6.90;96.80
11855;DHT22;5987;53.140;8.904;2023-02-28T12:13:14;7.00;96.50
11855;DHT22;5987;53.140;8.904;2023-02-28T12:20:05;7.10;96.90
11855;DHT22;5987;53.140;8.904;2023-02-28T12:23:37;7.00;96.70
11855;DHT22;5987;53.140;8.904;2023-02-28T12:26:53;7.00;97.60
11855;DHT22;5987;53.140;8.904;2023-02-28T12:30:03;7.20;99.30
11855;DHT22;5987;53.140;8.904;2023-02-28T12:33:12;7.10;96.90
11855;DHT22;5987;53.140;8.904;2023-02-28T12:36:20;7.30;98.00
11855;DHT22;5987;53.140;8.904;2023-02-28T12:39:28;7.30;95.60
11855;DHT22;5987;53.140;8.904;2023-02-28T12:42:51;7.40;94.80
11855;DHT22;5987;53.140;8.904;2023-02-28T12:46:03;7.50;93.10
11855;DHT22;5987;53.140;8.904;2023-02-28T12:49:17;7.60;92.10
11855;DHT22;5987;53.140;8.904;2023-02-28T12:52:31;7.60;91.50
11855;DHT22;5987;53.140;8.904;2023-02-28T12:55:49;7.60;91.50
11855;DHT22;5987;53.140;8.904;2023-02-28T12:59:03;7.60;88.80
11855;DHT22;5987;53.140;8.904;2023-02-28T13:02:54;7.40;87.20
11855;DHT22;5987;53.140;8.904;2023-02-28T13:06:26;7.50;86.90
11855;DHT22;5987;53.140;8.904;2023-02-28T13:09:52;7.50;87.80
11855;DHT22;5987;53.140;8.904;2023-02-28T13:12:57;7.50;89.30
11855;DHT22;5987;53.140;8.904;2023-02-28T13:16:03;7.50;89.50
11855;DHT22;5987;53.140;8.904;2023-02-28T13:19:10;7.50;89.30
11855;DHT22;5987;53.140;8.904;2023-02-28T13:22:35;7.60;89.70
11855;DHT22;5987;53.140;8.904;2023-02-28T13:25:53;7.70;89.20
11855;DHT22;5987;53.140;8.904;2023-02-28T13:28:58;7.60;90.00
11855;DHT22;5987;53.140;8.904;2023-02-28T13:32:35;7.70;87.70
11855;DHT22;5987;53.140;8.904;2023-02-28T13:35:44;7.80;88.50
11855;DHT22;5987;53.140;8.904;2023-02-28T13:38:49;7.80;88.50
11855;DHT22;5987;53.140;8.904;2023-02-28T13:41:55;7.80;87.20
11855;DHT22;5987;53.140;8.904;2023-02-28T13:45:26;7.80;89.30
11855;DHT22;5987;53.140;8.904;2023-02-28T13:48:33;7.80;86.90
11855;DHT22;5987;53.140;8.904;2023-02-28T13:51:41;7.80;88.10
11855;DHT22;5987;53.140;8.904;2023-02-28T13:58:43;7.90;87.30
11855;DHT22;5987;53.140;8.904;2023-02-28T14:02:17;8.00;87.10
11855;DHT22;5987;53.140;8.904;2023-02-28T14:05:39;7.90;88.20
11855;DHT22;5987;53.140;8.904;2023-02-28T14:08:52;7.80;87.50
11855;DHT22;5987;53.140;8.904;2023-02-28T14:15:58;7.90;86.30
11855;DHT22;5987;53.140;8.904;2023-02-28T14:19:10;7.90;85.70
11855;DHT22;5987;53.140;8.904;2023-02-28T14:22:37;7.90;85.50
11855;DHT22;5987;53.140;8.904;2023-02-28T14:25:58;7.90;85.10
11855;DHT22;5987;53.140;8.904;2023-02-28T14:29:24;7.80;85.90
11855;DHT22;5987;53.140;8.904;2023-02-28T14:32:45;7.70;86.10
11855;DHT22;5987;53.140;8.904;2023-02-28T14:36:03;7.50;87.00
11855;DHT22;5987;53.140;8.904;2023-02-28T14:39:15;7.70;87.10
11855;DHT22;5987;53.140;8.904;2023-02-28T14:42:28;7.80;86.20
11855;DHT22;5987;53.140;8.904;2023-02-28T14:45:35;7.80;86.40
11855;DHT22;5987;53.140;8.904;2023-02-28T14:48:40;7.80;86.00
11855;DHT22;5987;53.140;8.904;2023-02-28T14:51:44;7.80;83.80
11855;DHT22;5987;53.140;8.904;2023-02-28T14:54:54;7.80;83.60
11855;DHT22;5987;53.140;8.904;2023-02-28T14:58:01;7.80;83.60
11855;DHT22;5987;53.140;8.904;2023-02-28T15:01:10;7.70;84.10
11855;DHT22;5987;53.140;8.904;2023-02-28T15:04:22;7.70;84.20
11855;DHT22;5987;53.140;8.904;2023-02-28T15:07:30;7.70;84.70
11855;DHT22;5987;53.140;8.904;2023-02-28T15:10:36;7.80;84.80
11855;DHT22;5987;53.140;8.904;2023-02-28T15:13:44;7.70;84.40
11855;DHT22;5987;53.140;8.904;2023-02-28T15:16:55;7.70;83.00
11855;DHT22;5987;53.140;8.904;2023-02-28T15:20:03;7.60;83.50
11855;DHT22;5987;53.140;8.904;2023-02-28T15:23:08;7.60;83.50
11855;DHT22;5987;53.140;8.904;2023-02-28T15:26:16;7.60;82.90
11855;DHT22;5987;53.140;8.904;2023-02-28T15:29:25;7.50;83.20
11855;DHT22;5987;53.140;8.904;2023-02-28T15:32:34;7.40;82.40
11855;DHT22;5987;53.140;8.904;2023-02-28T15:35:41;7.40;83.20
11855;DHT22;5987;53.140;8.904;2023-02-28T15:38:51;7.40;84.20
11855;DHT22;5987;53.140;8.904;2023-02-28T15:42:20;7.50;83.90
11855;DHT22;5987;53.140;8.904;2023-02-28T15:45:31;7.40;85.10
11855;DHT22;5987;53.140;8.904;2023-02-28T15:48:44;7.30;85.10
11855;DHT22;5987;53.140;8.904;2023-02-28T15:51:57;7.20;85.90
11855;DHT22;5987;53.140;8.904;2023-02-28T15:55:08;7.30;85.80
11855;DHT22;5987;53.140;8.904;2023-02-28T15:58:18;7.20;86.80
11855;DHT22;5987;53.140;8.904;2023-02-28T16:01:25;7.20;86.30
11855;DHT22;5987;53.140;8.904;2023-02-28T16:04:32;7.20;86.20
11855;DHT22;5987;53.140;8.904;2023-02-28T16:07:38;7.30;86.80
11855;DHT22;5987;53.140;8.904;2023-02-28T16:10:43;7.40;86.30
11855;DHT22;5987;53.140;8.904;2023-02-28T16:13:50;7.50;85.90
11855;DHT22;5987;53.140;8.904;2023-02-28T16:17:02;7.50;85.70
11855;DHT22;5987;53.140;8.904;2023-02-28T16:20:16;7.30;85.90
11855;DHT22;5987;53.140;8.904;2023-02-28T16:23:22;7.30;86.10
11855;DHT22;5987;53.140;8.904;2023-02-28T16:26:26;7.10;86.60
11855;DHT22;5987;53.140;8.904;2023-02-28T16:29:33;7.00;87.20
11855;DHT22;5987;53.140;8.904;2023-02-28T16:32:39;6.90;87.70
11855;DHT22;5987;53.140;8.904;2023-02-28T16:35:43;6.80;88.20
11855;DHT22;5987;53.140;8.904;2023-02-28T16:38:47;6.70;88.80
11855;DHT22;5987;53.140;8.904;2023-02-28T16:41:52;6.60;89.30
11855;DHT22;5987;53.140;8.904;2023-02-28T16:44:57;6.60;89.20
11855;DHT22;5987;53.140;8.904;2023-02-28T16:48:01;6.40;90.00
11855;DHT22;5987;53.140;8.904;2023-02-28T16:51:05;6.30;90.30
11855;DHT22;5987;53.140;8.904;2023-02-28T16:54:09;6.20;90.60
11855;DHT22;5987;53.140;8.904;2023-02-28T16:57:18;6.10;90.80
11855;DHT22;5987;53.140;8.904;2023-02-28T17:00:27;6.00;91.00
11855;DHT22;5987;53.140;8.904;2023-02-28T17:03:32;5.90;91.30
11855;DHT22;5987;53.140;8.904;2023-02-28T17:06:39;5.80;91.60
11855;DHT22;5987;53.140;8.904;2023-02-28T17:09:44;5.70;91.70
11855;DHT22;5987;53.140;8.904;2023-02-28T17:12:48;5.60;92.10
11855;DHT22;5987;53.140;8.904;2023-02-28T17:15:53;5.50;92.30
11855;DHT22;5987;53.140;8.904;2023-02-28T17:19:00;5.40;92.50
11855;DHT22;5987;53.140;8.904;2023-02-28T17:22:04;5.30;92.80
11855;DHT22;5987;53.140;8.904;2023-02-28T17:25:09;5.20;93.30
11855;DHT22;5987;53.140;8.904;2023-02-28T17:28:14;5.10;93.90
11855;DHT22;5987;53.140;8.904;2023-02-28T17:31:19;4.90;94.10
11855;DHT22;5987;53.140;8.904;2023-02-28T17:34:23;4.90;94.70
11855;DHT22;5987;53.140;8.904;2023-02-28T17:37:27;4.70;95.30
11855;DHT22;5987;53.140;8.904;2023-02-28T17:40:31;4.60;95.90
11855;DHT22;5987;53.140;8.904;2023-02-28T17:43:36;4.50;96.60
11855;DHT22;5987;53.140;8.904;2023-02-28T17:46:42;4.30;97.40
11855;DHT22;5987;53.140;8.904;2023-02-28T17:49:47;4.30;98.20
11855;DHT22;5987;53.140;8.904;2023-02-28T17:52:51;4.40;99.10
11855;DHT22;5987;53.140;8.904;2023-02-28T17:55:54;4.30;99.90
11855;DHT22;5987;53.140;8.904;2023-02-28T17:58:58;4.20;99.90
11855;DHT22;5987;53.140;8.904;2023-02-28T18:02:03;4.10;99.90
11855;DHT22;5987;53.140;8.904;2023-02-28T18:05:08;4.00;99.90
11855;DHT22;5987;53.140;8.904;2023-02-28T18:08:12;3.90;99.90
11855;DHT22;5987;53.140;8.904;2023-02-28T18:11:19;3.80;99.90
11855;DHT22;5987;53.140;8.904;2023-02-28T18:14:25;3.80;99.90
11855;DHT22;5987;53.140;8.904;2023-02-28T18:17:30;3.70;99.90
11855;DHT22;5987;53.140;8.904;2023-02-28T18:20:34;3.60;99.90
11855;DHT22;5987;53.140;8.904;2023-02-28T18:23:38;3.40;99.90
11855;DHT22;5987;53.140;8.904;2023-02-28T18:26:48;3.30;99.90
11855;DHT22;5987;53.140;8.904;2023-02-28T18:29:53;3.20;99.90
11855;DHT22;5987;53.140;8.904;2023-02-28T18:32:59;3.10;99.90
11855;DHT22;5987;53.140;8.904;2023-02-28T18:36:05;3.00;99.90
11855;DHT22;5987;53.140;8.904;2023-02-28T18:39:09;3.00;99.90
11855;DHT22;5987;53.140;8.904;2023-02-28T18:42:13;3.00;99.90
11855;DHT22;5987;53.140;8.904;2023-02-28T18:45:37;3.00;99.90
11855;DHT22;5987;53.140;8.904;2023-02-28T18:48:43;3.10;99.90
11855;DHT22;5987;53.140;8.904;2023-02-28T18:51:48;3.10;99.90
11855;DHT22;5987;53.140;8.904;2023-02-28T18:54:52;2.90;99.90
11855;DHT22;5987;53.140;8.904;2023-02-28T18:57:55;2.70;99.90
11855;DHT22;5987;53.140;8.904;2023-02-28T19:01:00;2.60;99.90
11855;DHT22;5987;53.140;8.904;2023-02-28T19:04:06;2.50;99.90
11855;DHT22;5987;53.140;8.904;2023-02-28T19:07:10;2.40;99.90
11855;DHT22;5987;53.140;8.904;2023-02-28T19:10:14;2.40;99.90
11855;DHT22;5987;53.140;8.904;2023-02-28T19:13:19;2.50;99.90
11855;DHT22;5987;53.140;8.904;2023-02-28T19:16:24;2.50;99.90
11855;DHT22;5987;53.140;8.904;2023-02-28T19:19:30;2.40;99.90
11855;DHT22;5987;53.140;8.904;2023-02-28T19:22:34;2.20;99.90
11855;DHT22;5987;53.140;8.904;2023-02-28T19:25:40;2.10;99.90
11855;DHT22;5987;53.140;8.904;2023-02-28T19:28:44;2.00;99.90
11855;DHT22;5987;53.140;8.904;2023-02-28T19:31:48;1.90;99.90
11855;DHT22;5987;53.140;8.904;2023-02-28T19:34:56;1.80;99.90
11855;DHT22;5987;53.140;8.904;2023-02-28T19:38:00;1.90;99.90
11855;DHT22;5987;53.140;8.904;2023-02-28T19:41:05;1.90;99.90
11855;DHT22;5987;53.140;8.904;2023-02-28T19:44:10;2.00;99.90
11855;DHT22;5987;53.140;8.904;2023-02-28T19:47:15;2.10;99.90
11855;DHT22;5987;53.140;8.904;2023-02-28T19:50:23;2.10;99.90
11855;DHT22;5987;53.140;8.904;2023-02-28T19:53:29;2.00;99.90
11855;DHT22;5987;53.140;8.904;2023-02-28T19:56:34;2.00;99.90
11855;DHT22;5987;53.140;8.904;2023-02-28T19:59:38;1.90;99.90
11855;DHT22;5987;53.140;8.904;2023-02-28T20:02:42;1.90;99.90
11855;DHT22;5987;53.140;8.904;2023-02-28T20:05:58;1.90;99.90
11855;DHT22;5987;53.140;8.904;2023-02-28T20:09:03;1.80;99.90
11855;DHT22;5987;53.140;8.904;2023-02-28T20:12:08;1.70;99.90
11855;DHT22;5987;53.140;8.904;2023-02-28T20:15:25;1.70;99.90
11855;DHT22;5987;53.140;8.904;2023-02-28T20:18:29;1.50;99.90
11855;DHT22;5987;53.140;8.904;2023-02-28T20:21:34;1.50;99.90
11855;DHT22;5987;53.140;8.904;2023-02-28T20:24:38;1.50;99.90
11855;DHT22;5987;53.140;8.904;2023-02-28T20:27:42;1.50;99.90
11855;DHT22;5987;53.140;8.904;2023-02-28T20:30:46;1.50;99.90
11855;DHT22;5987;53.140;8.904;2023-02-28T20:33:51;1.40;99.90
11855;DHT22;5987;53.140;8.904;2023-02-28T20:36:56;1.30;99.90
11855;DHT22;5987;53.140;8.904;2023-02-28T20:40:00;1.30;99.90
11855;DHT22;5987;53.140;8.904;2023-02-28T20:43:05;1.20;99.90